HUY weather

Humberside Airport
Grimsby, England, United Kingdom

Public forecast

Using degrees Celsius for public forecast. Weather courtesy of forecast.io.

Current aviation weather report (METAR) for Humberside Airport

Retrieved 2019/10/15 08:20 UTC (0 seconds ago):

EGNJ 150820Z 25008KT 8000 SCT005 BKN014 OVC017 11/10 Q1002

Aviation forecast (TAF) for Humberside Airport

Forecast is more than 12 hours old.

Retrieved 2016/01/23 12:00 UTC (4 years ago):

TAF EGNJ 231059Z 2312/2321 22012KT 9999 FEW035 PROB30 2316/2319 BKN014 BECMG 2319/2321 BKN012 TEMPO 2319/2321 6000 RA BKN008